Aeroporto :
LOGIN :

Iscrizione | Disclaimer

   EN    FR    IT 

 










Sommario :    VFR   VFR Marginale   IFR   IFR Intensivo   IFR Molto Intensivo
Visibilità : 
Base nubi : 
>= 8 km
>= 3000ft
5 / 8 km
1000 / 3000 ft
1500m / 5 km
500 / 1000 ft
800 / 1500m
200 / 500 ft
< 800m
< 200 ft
Simboli :   Temporali  Nebbia  Neve Forte  Precipitazioni Forti  Vento > 20 kt
SIGMETs :   Varie  Temporali  Ghiacco  Turbolenza  Onda orograficha  Ceneri Vulcaniche






- Altitudine del aeroporto : 505 ft
- Codice IATA : SXB


LFST - Strasbourg

ULTIMO METAR :
  • 290330Z AUTO 03014KT CAVOK 07/00 Q1019 NOSIG

METARs OBSOLETI :
  • 290300Z AUTO 03014KT CAVOK 08/00 Q1019 NOSIG
  • 290230Z AUTO 02013KT CAVOK 08/00 Q1019 NOSIG
  • 290200Z AUTO 02013KT CAVOK 09/M00 Q1019 NOSIG
  • 290130Z AUTO 01013KT CAVOK 09/00 Q1019 NOSIG
  • 290100Z AUTO 01012KT CAVOK 09/01 Q1019 NOSIG

TAF TAF LFST
Valido dal 29 a 00 ore il 30 a 00 ore UTC


282302Z 2900/2924 36010KT 9999 FEW030 SCT070
FM290600 01013KT 9999 SCT020 OVC030
TEMPO 2913/2924 03015G25KT 5000 -RA
PROB30
TEMPO 2922/2924 4000 -RASN OVC012



MetMap, La meteo Aeronautica in un colpo d'occhio ! - Copyright ORBIFLY Dicembre 2007 - Disclaimer

ORBIFLY MET'MAP TEAM :

Programmazione e sviluppo : Alexandra Zaïnal
Concezione : Baudouin d'Aumeries
Aiuto per la programmazione : Marc-Olivier Méhu
Supporto tecnico e logistico : Manuel Goepfert
Aiuto per la traduzione : Arnaldo La Scala

Contatto : metmap@orbifly.com




FONTI E CREDITI :

   NOAA